sensor_id;sensor_type;location;lat;lon;timestamp;P1;durP1;ratioP1;P2;durP2;ratioP2
49440;SDS011;35317;51.978;6.296;2023-05-23T00:00:42;4.72;;;3.13;;
49440;SDS011;35317;51.978;6.296;2023-05-23T00:05:43;4.97;;;3.28;;
49440;SDS011;35317;51.978;6.296;2023-05-23T00:10:44;5.47;;;3.20;;
49440;SDS011;35317;51.978;6.296;2023-05-23T00:15:45;5.32;;;3.17;;
49440;SDS011;35317;51.978;6.296;2023-05-23T00:20:47;5.90;;;3.58;;
49440;SDS011;35317;51.978;6.296;2023-05-23T00:25:48;5.25;;;3.08;;
49440;SDS011;35317;51.978;6.296;2023-05-23T00:30:51;5.47;;;3.63;;
49440;SDS011;35317;51.978;6.296;2023-05-23T00:35:52;4.63;;;3.30;;
49440;SDS011;35317;51.978;6.296;2023-05-23T00:40:53;6.18;;;3.80;;
49440;SDS011;35317;51.978;6.296;2023-05-23T00:45:53;6.65;;;3.70;;
49440;SDS011;35317;51.978;6.296;2023-05-23T00:50:55;5.05;;;3.38;;
49440;SDS011;35317;51.978;6.296;2023-05-23T00:55:56;5.40;;;3.17;;
49440;SDS011;35317;51.978;6.296;2023-05-23T01:00:57;7.93;;;3.22;;
49440;SDS011;35317;51.978;6.296;2023-05-23T01:05:58;3.70;;;2.20;;
49440;SDS011;35317;51.978;6.296;2023-05-23T01:11:00;7.22;;;3.65;;
49440;SDS011;35317;51.978;6.296;2023-05-23T01:16:16;6.25;;;2.83;;
49440;SDS011;35317;51.978;6.296;2023-05-23T01:21:29;6.28;;;3.53;;
49440;SDS011;35317;51.978;6.296;2023-05-23T01:26:40;6.45;;;3.70;;
49440;SDS011;35317;51.978;6.296;2023-05-23T01:32:06;5.40;;;3.25;;
49440;SDS011;35317;51.978;6.296;2023-05-23T01:37:10;6.57;;;3.65;;
49440;SDS011;35317;51.978;6.296;2023-05-23T01:42:13;4.50;;;2.80;;
49440;SDS011;35317;51.978;6.296;2023-05-23T01:47:14;6.60;;;3.28;;
49440;SDS011;35317;51.978;6.296;2023-05-23T01:52:16;4.10;;;2.83;;
49440;SDS011;35317;51.978;6.296;2023-05-23T01:57:18;6.20;;;3.13;;
49440;SDS011;35317;51.978;6.296;2023-05-23T02:07:22;7.40;;;3.58;;
49440;SDS011;35317;51.978;6.296;2023-05-23T02:12:23;9.13;;;3.75;;
49440;SDS011;35317;51.978;6.296;2023-05-23T02:17:24;6.35;;;3.35;;
49440;SDS011;35317;51.978;6.296;2023-05-23T02:22:25;6.53;;;3.03;;
49440;SDS011;35317;51.978;6.296;2023-05-23T02:27:26;7.35;;;3.33;;
49440;SDS011;35317;51.978;6.296;2023-05-23T02:32:27;6.38;;;3.80;;
49440;SDS011;35317;51.978;6.296;2023-05-23T02:37:28;10.80;;;4.22;;
49440;SDS011;35317;51.978;6.296;2023-05-23T02:42:29;6.75;;;3.22;;
49440;SDS011;35317;51.978;6.296;2023-05-23T02:47:30;9.05;;;3.70;;
49440;SDS011;35317;51.978;6.296;2023-05-23T02:52:31;7.35;;;4.15;;
49440;SDS011;35317;51.978;6.296;2023-05-23T02:57:31;7.80;;;4.13;;
49440;SDS011;35317;51.978;6.296;2023-05-23T03:02:32;7.35;;;4.30;;
49440;SDS011;35317;51.978;6.296;2023-05-23T03:07:33;7.88;;;4.28;;
49440;SDS011;35317;51.978;6.296;2023-05-23T03:12:34;7.50;;;4.28;;
49440;SDS011;35317;51.978;6.296;2023-05-23T03:17:36;7.45;;;4.88;;
49440;SDS011;35317;51.978;6.296;2023-05-23T03:22:36;6.30;;;3.85;;
49440;SDS011;35317;51.978;6.296;2023-05-23T03:27:37;9.20;;;4.40;;
49440;SDS011;35317;51.978;6.296;2023-05-23T03:32:38;8.70;;;4.40;;
49440;SDS011;35317;51.978;6.296;2023-05-23T03:37:39;8.07;;;4.38;;
49440;SDS011;35317;51.978;6.296;2023-05-23T03:42:40;14.10;;;4.90;;
49440;SDS011;35317;51.978;6.296;2023-05-23T03:47:40;8.30;;;4.32;;
49440;SDS011;35317;51.978;6.296;2023-05-23T03:52:42;5.97;;;3.42;;
49440;SDS011;35317;51.978;6.296;2023-05-23T03:57:42;7.65;;;4.25;;
49440;SDS011;35317;51.978;6.296;2023-05-23T04:02:44;8.10;;;4.28;;
49440;SDS011;35317;51.978;6.296;2023-05-23T04:07:45;7.90;;;4.20;;
49440;SDS011;35317;51.978;6.296;2023-05-23T04:12:46;5.75;;;3.80;;
49440;SDS011;35317;51.978;6.296;2023-05-23T04:17:47;8.27;;;4.28;;
49440;SDS011;35317;51.978;6.296;2023-05-23T04:22:48;6.75;;;4.03;;
49440;SDS011;35317;51.978;6.296;2023-05-23T04:27:49;8.23;;;4.60;;
49440;SDS011;35317;51.978;6.296;2023-05-23T04:32:49;9.38;;;5.00;;
49440;SDS011;35317;51.978;6.296;2023-05-23T04:37:51;9.98;;;4.45;;
49440;SDS011;35317;51.978;6.296;2023-05-23T04:42:55;9.23;;;4.22;;
49440;SDS011;35317;51.978;6.296;2023-05-23T04:47:56;7.82;;;3.85;;
49440;SDS011;35317;51.978;6.296;2023-05-23T04:52:57;7.18;;;4.47;;
49440;SDS011;35317;51.978;6.296;2023-05-23T04:57:58;7.38;;;3.80;;
49440;SDS011;35317;51.978;6.296;2023-05-23T05:03:00;6.30;;;3.85;;
49440;SDS011;35317;51.978;6.296;2023-05-23T05:08:00;6.55;;;3.92;;
49440;SDS011;35317;51.978;6.296;2023-05-23T05:13:01;8.25;;;3.90;;
49440;SDS011;35317;51.978;6.296;2023-05-23T05:18:02;7.07;;;3.55;;
49440;SDS011;35317;51.978;6.296;2023-05-23T05:23:03;9.02;;;4.18;;
49440;SDS011;35317;51.978;6.296;2023-05-23T05:28:03;5.60;;;3.53;;
49440;SDS011;35317;51.978;6.296;2023-05-23T05:33:07;9.55;;;3.58;;
49440;SDS011;35317;51.978;6.296;2023-05-23T05:38:09;12.50;;;4.30;;
49440;SDS011;35317;51.978;6.296;2023-05-23T05:43:10;8.00;;;3.60;;
49440;SDS011;35317;51.978;6.296;2023-05-23T05:48:11;10.63;;;3.65;;
49440;SDS011;35317;51.978;6.296;2023-05-23T05:53:12;11.05;;;4.05;;
49440;SDS011;35317;51.978;6.296;2023-05-23T05:58:13;10.02;;;3.80;;
49440;SDS011;35317;51.978;6.296;2023-05-23T06:03:14;10.38;;;3.25;;
49440;SDS011;35317;51.978;6.296;2023-05-23T06:08:14;7.43;;;3.28;;
49440;SDS011;35317;51.978;6.296;2023-05-23T06:13:15;8.43;;;3.80;;
49440;SDS011;35317;51.978;6.296;2023-05-23T06:18:16;10.93;;;3.72;;
49440;SDS011;35317;51.978;6.296;2023-05-23T06:23:17;8.95;;;3.78;;
49440;SDS011;35317;51.978;6.296;2023-05-23T06:28:18;7.00;;;3.47;;
49440;SDS011;35317;51.978;6.296;2023-05-23T06:33:19;10.35;;;3.95;;
49440;SDS011;35317;51.978;6.296;2023-05-23T06:38:21;8.63;;;3.92;;
49440;SDS011;35317;51.978;6.296;2023-05-23T06:43:22;12.15;;;4.30;;
49440;SDS011;35317;51.978;6.296;2023-05-23T06:48:23;9.60;;;4.00;;
49440;SDS011;35317;51.978;6.296;2023-05-23T06:53:24;6.65;;;3.17;;
49440;SDS011;35317;51.978;6.296;2023-05-23T06:58:25;8.52;;;3.65;;
49440;SDS011;35317;51.978;6.296;2023-05-23T07:03:26;6.25;;;3.00;;
49440;SDS011;35317;51.978;6.296;2023-05-23T07:08:27;9.13;;;2.63;;
49440;SDS011;35317;51.978;6.296;2023-05-23T07:13:27;5.55;;;3.03;;
49440;SDS011;35317;51.978;6.296;2023-05-23T07:18:28;9.10;;;3.13;;
49440;SDS011;35317;51.978;6.296;2023-05-23T07:23:32;8.30;;;2.95;;
49440;SDS011;35317;51.978;6.296;2023-05-23T07:33:34;5.43;;;2.55;;
49440;SDS011;35317;51.978;6.296;2023-05-23T07:38:35;4.45;;;2.25;;
49440;SDS011;35317;51.978;6.296;2023-05-23T07:43:36;7.00;;;2.90;;
49440;SDS011;35317;51.978;6.296;2023-05-23T07:48:36;7.15;;;2.53;;
49440;SDS011;35317;51.978;6.296;2023-05-23T07:53:37;6.55;;;2.97;;
49440;SDS011;35317;51.978;6.296;2023-05-23T07:58:40;5.63;;;2.40;;
49440;SDS011;35317;51.978;6.296;2023-05-23T08:03:41;7.47;;;2.60;;
49440;SDS011;35317;51.978;6.296;2023-05-23T08:08:41;5.18;;;2.80;;
49440;SDS011;35317;51.978;6.296;2023-05-23T08:13:42;4.95;;;2.65;;
49440;SDS011;35317;51.978;6.296;2023-05-23T08:18:43;5.15;;;2.67;;
49440;SDS011;35317;51.978;6.296;2023-05-23T08:23:44;6.28;;;2.10;;
49440;SDS011;35317;51.978;6.296;2023-05-23T08:28:45;5.93;;;2.67;;
49440;SDS011;35317;51.978;6.296;2023-05-23T08:33:46;4.90;;;2.30;;
49440;SDS011;35317;51.978;6.296;2023-05-23T08:38:48;4.65;;;2.28;;
49440;SDS011;35317;51.978;6.296;2023-05-23T08:43:51;5.40;;;1.95;;
49440;SDS011;35317;51.978;6.296;2023-05-23T08:48:52;7.10;;;1.90;;
49440;SDS011;35317;51.978;6.296;2023-05-23T08:53:54;3.10;;;1.50;;
49440;SDS011;35317;51.978;6.296;2023-05-23T08:58:56;3.75;;;1.55;;
49440;SDS011;35317;51.978;6.296;2023-05-23T09:03:57;3.15;;;1.70;;
49440;SDS011;35317;51.978;6.296;2023-05-23T09:09:03;3.38;;;1.40;;
49440;SDS011;35317;51.978;6.296;2023-05-23T09:14:04;3.53;;;1.50;;
49440;SDS011;35317;51.978;6.296;2023-05-23T09:19:10;3.58;;;1.65;;
49440;SDS011;35317;51.978;6.296;2023-05-23T09:24:12;7.53;;;1.75;;
49440;SDS011;35317;51.978;6.296;2023-05-23T09:29:13;5.88;;;1.50;;
49440;SDS011;35317;51.978;6.296;2023-05-23T09:34:18;5.68;;;1.75;;
49440;SDS011;35317;51.978;6.296;2023-05-23T09:39:19;3.30;;;1.42;;
49440;SDS011;35317;51.978;6.296;2023-05-23T09:44:21;6.43;;;1.50;;
49440;SDS011;35317;51.978;6.296;2023-05-23T09:49:25;5.10;;;1.45;;
49440;SDS011;35317;51.978;6.296;2023-05-23T09:54:26;3.80;;;1.40;;
49440;SDS011;35317;51.978;6.296;2023-05-23T09:59:27;4.28;;;1.65;;
49440;SDS011;35317;51.978;6.296;2023-05-23T10:04:31;5.20;;;1.38;;
49440;SDS011;35317;51.978;6.296;2023-05-23T10:09:35;6.10;;;1.30;;
49440;SDS011;35317;51.978;6.296;2023-05-23T10:14:39;4.82;;;1.33;;
49440;SDS011;35317;51.978;6.296;2023-05-23T10:20:00;4.20;;;1.40;;
49440;SDS011;35317;51.978;6.296;2023-05-23T10:25:09;4.25;;;1.77;;
49440;SDS011;35317;51.978;6.296;2023-05-23T10:30:11;5.35;;;1.85;;
49440;SDS011;35317;51.978;6.296;2023-05-23T10:35:23;4.35;;;1.48;;
49440;SDS011;35317;51.978;6.296;2023-05-23T10:45:52;5.57;;;1.30;;
49440;SDS011;35317;51.978;6.296;2023-05-23T10:51:06;6.85;;;1.52;;
49440;SDS011;35317;51.978;6.296;2023-05-23T10:56:19;3.08;;;1.50;;
49440;SDS011;35317;51.978;6.296;2023-05-23T11:01:22;3.92;;;1.48;;
49440;SDS011;35317;51.978;6.296;2023-05-23T11:06:40;5.25;;;1.25;;
49440;SDS011;35317;51.978;6.296;2023-05-23T11:16:52;4.88;;;1.50;;
49440;SDS011;35317;51.978;6.296;2023-05-23T11:21:54;4.82;;;1.58;;
49440;SDS011;35317;51.978;6.296;2023-05-23T11:26:59;4.72;;;1.85;;
49440;SDS011;35317;51.978;6.296;2023-05-23T11:32:00;5.88;;;2.00;;
49440;SDS011;35317;51.978;6.296;2023-05-23T11:37:11;7.15;;;1.30;;
49440;SDS011;35317;51.978;6.296;2023-05-23T11:42:12;2.80;;;1.08;;
49440;SDS011;35317;51.978;6.296;2023-05-23T11:47:13;2.65;;;1.17;;
49440;SDS011;35317;51.978;6.296;2023-05-23T11:52:14;3.53;;;1.27;;
49440;SDS011;35317;51.978;6.296;2023-05-23T11:57:15;3.25;;;1.15;;
49440;SDS011;35317;51.978;6.296;2023-05-23T12:02:16;4.70;;;1.40;;
49440;SDS011;35317;51.978;6.296;2023-05-23T12:07:19;4.55;;;1.20;;
49440;SDS011;35317;51.978;6.296;2023-05-23T12:12:20;3.55;;;1.40;;
49440;SDS011;35317;51.978;6.296;2023-05-23T12:17:21;5.85;;;1.30;;
49440;SDS011;35317;51.978;6.296;2023-05-23T12:22:22;6.53;;;1.33;;
49440;SDS011;35317;51.978;6.296;2023-05-23T12:27:27;4.07;;;1.02;;
49440;SDS011;35317;51.978;6.296;2023-05-23T12:32:30;2.38;;;1.08;;
49440;SDS011;35317;51.978;6.296;2023-05-23T12:37:32;3.00;;;1.10;;
49440;SDS011;35317;51.978;6.296;2023-05-23T12:42:42;3.38;;;1.40;;
49440;SDS011;35317;51.978;6.296;2023-05-23T12:47:51;4.45;;;1.20;;
49440;SDS011;35317;51.978;6.296;2023-05-23T12:52:52;4.18;;;1.15;;
49440;SDS011;35317;51.978;6.296;2023-05-23T12:57:53;3.00;;;1.30;;
49440;SDS011;35317;51.978;6.296;2023-05-23T13:02:54;3.25;;;1.25;;
49440;SDS011;35317;51.978;6.296;2023-05-23T13:07:55;8.20;;;1.42;;
49440;SDS011;35317;51.978;6.296;2023-05-23T13:12:58;8.43;;;1.30;;
49440;SDS011;35317;51.978;6.296;2023-05-23T13:17:59;3.50;;;0.95;;
49440;SDS011;35317;51.978;6.296;2023-05-23T13:23:00;5.57;;;1.52;;
49440;SDS011;35317;51.978;6.296;2023-05-23T13:28:00;4.57;;;1.25;;
49440;SDS011;35317;51.978;6.296;2023-05-23T13:33:01;3.75;;;1.17;;
49440;SDS011;35317;51.978;6.296;2023-05-23T13:38:02;4.68;;;1.35;;
49440;SDS011;35317;51.978;6.296;2023-05-23T13:43:03;5.53;;;1.08;;
49440;SDS011;35317;51.978;6.296;2023-05-23T13:48:04;1.70;;;0.90;;
49440;SDS011;35317;51.978;6.296;2023-05-23T13:53:04;5.78;;;1.42;;
49440;SDS011;35317;51.978;6.296;2023-05-23T13:58:13;3.35;;;1.08;;
49440;SDS011;35317;51.978;6.296;2023-05-23T14:03:14;4.70;;;0.93;;
49440;SDS011;35317;51.978;6.296;2023-05-23T14:08:15;3.78;;;1.10;;
49440;SDS011;35317;51.978;6.296;2023-05-23T14:13:16;3.10;;;1.35;;
49440;SDS011;35317;51.978;6.296;2023-05-23T14:18:17;4.80;;;1.55;;
49440;SDS011;35317;51.978;6.296;2023-05-23T14:23:19;3.53;;;1.20;;
49440;SDS011;35317;51.978;6.296;2023-05-23T14:28:20;7.22;;;1.40;;
49440;SDS011;35317;51.978;6.296;2023-05-23T14:33:20;5.70;;;1.40;;
49440;SDS011;35317;51.978;6.296;2023-05-23T14:38:21;4.38;;;1.13;;
49440;SDS011;35317;51.978;6.296;2023-05-23T14:43:22;3.63;;;1.20;;
49440;SDS011;35317;51.978;6.296;2023-05-23T14:48:23;3.50;;;1.13;;
49440;SDS011;35317;51.978;6.296;2023-05-23T14:53:23;4.68;;;1.17;;
49440;SDS011;35317;51.978;6.296;2023-05-23T14:58:24;3.13;;;1.25;;
49440;SDS011;35317;51.978;6.296;2023-05-23T15:03:25;5.60;;;1.15;;
49440;SDS011;35317;51.978;6.296;2023-05-23T15:08:26;3.25;;;1.10;;
49440;SDS011;35317;51.978;6.296;2023-05-23T15:13:28;3.65;;;1.30;;
49440;SDS011;35317;51.978;6.296;2023-05-23T15:18:29;4.47;;;1.13;;
49440;SDS011;35317;51.978;6.296;2023-05-23T15:23:30;2.80;;;0.93;;
49440;SDS011;35317;51.978;6.296;2023-05-23T15:28:31;2.38;;;1.08;;
49440;SDS011;35317;51.978;6.296;2023-05-23T15:33:32;7.10;;;1.33;;
49440;SDS011;35317;51.978;6.296;2023-05-23T15:38:32;2.88;;;1.15;;
49440;SDS011;35317;51.978;6.296;2023-05-23T15:43:34;4.78;;;1.10;;
49440;SDS011;35317;51.978;6.296;2023-05-23T15:48:35;3.25;;;1.10;;
49440;SDS011;35317;51.978;6.296;2023-05-23T15:53:36;5.70;;;0.95;;
49440;SDS011;35317;51.978;6.296;2023-05-23T15:58:37;3.15;;;1.13;;
49440;SDS011;35317;51.978;6.296;2023-05-23T16:03:37;5.03;;;1.23;;
49440;SDS011;35317;51.978;6.296;2023-05-23T16:08:38;3.63;;;1.25;;
49440;SDS011;35317;51.978;6.296;2023-05-23T16:13:39;5.15;;;1.20;;
49440;SDS011;35317;51.978;6.296;2023-05-23T16:18:40;4.20;;;1.20;;
49440;SDS011;35317;51.978;6.296;2023-05-23T16:23:41;3.42;;;1.20;;
49440;SDS011;35317;51.978;6.296;2023-05-23T16:28:41;4.53;;;0.90;;
49440;SDS011;35317;51.978;6.296;2023-05-23T16:33:43;3.45;;;1.00;;
49440;SDS011;35317;51.978;6.296;2023-05-23T16:38:44;5.10;;;0.95;;
49440;SDS011;35317;51.978;6.296;2023-05-23T16:43:45;4.03;;;1.17;;
49440;SDS011;35317;51.978;6.296;2023-05-23T16:48:45;3.00;;;1.30;;
49440;SDS011;35317;51.978;6.296;2023-05-23T16:53:46;2.30;;;0.90;;
49440;SDS011;35317;51.978;6.296;2023-05-23T16:58:48;4.78;;;0.98;;
49440;SDS011;35317;51.978;6.296;2023-05-23T17:03:49;5.25;;;1.30;;
49440;SDS011;35317;51.978;6.296;2023-05-23T17:08:49;2.90;;;1.10;;
49440;SDS011;35317;51.978;6.296;2023-05-23T17:13:50;3.67;;;0.98;;
49440;SDS011;35317;51.978;6.296;2023-05-23T17:18:51;4.18;;;1.00;;
49440;SDS011;35317;51.978;6.296;2023-05-23T17:23:52;4.10;;;1.15;;
49440;SDS011;35317;51.978;6.296;2023-05-23T17:28:53;6.43;;;1.00;;
49440;SDS011;35317;51.978;6.296;2023-05-23T17:33:54;2.75;;;1.23;;
49440;SDS011;35317;51.978;6.296;2023-05-23T17:38:55;4.90;;;1.02;;
49440;SDS011;35317;51.978;6.296;2023-05-23T17:43:55;2.38;;;1.10;;
49440;SDS011;35317;51.978;6.296;2023-05-23T17:48:56;6.30;;;1.17;;
49440;SDS011;35317;51.978;6.296;2023-05-23T17:53:57;4.93;;;1.20;;
49440;SDS011;35317;51.978;6.296;2023-05-23T17:59:01;2.83;;;1.00;;
49440;SDS011;35317;51.978;6.296;2023-05-23T18:04:04;5.82;;;1.83;;
49440;SDS011;35317;51.978;6.296;2023-05-23T18:09:04;3.80;;;0.90;;
49440;SDS011;35317;51.978;6.296;2023-05-23T18:14:05;3.65;;;0.95;;
49440;SDS011;35317;51.978;6.296;2023-05-23T18:19:06;6.43;;;0.95;;
49440;SDS011;35317;51.978;6.296;2023-05-23T18:24:07;3.67;;;0.70;;
49440;SDS011;35317;51.978;6.296;2023-05-23T18:29:10;7.30;;;1.50;;
49440;SDS011;35317;51.978;6.296;2023-05-23T18:34:11;1.95;;;0.70;;
49440;SDS011;35317;51.978;6.296;2023-05-23T18:39:13;4.70;;;0.93;;
49440;SDS011;35317;51.978;6.296;2023-05-23T18:44:15;3.03;;;0.80;;
49440;SDS011;35317;51.978;6.296;2023-05-23T18:49:17;6.03;;;0.88;;
49440;SDS011;35317;51.978;6.296;2023-05-23T18:54:17;2.97;;;0.93;;
49440;SDS011;35317;51.978;6.296;2023-05-23T18:59:18;3.95;;;0.90;;
49440;SDS011;35317;51.978;6.296;2023-05-23T19:04:19;4.47;;;0.85;;
49440;SDS011;35317;51.978;6.296;2023-05-23T19:09:20;4.68;;;0.90;;
49440;SDS011;35317;51.978;6.296;2023-05-23T19:14:21;4.00;;;0.70;;
49440;SDS011;35317;51.978;6.296;2023-05-23T19:19:23;3.65;;;0.80;;
49440;SDS011;35317;51.978;6.296;2023-05-23T19:24:23;1.17;;;0.63;;
49440;SDS011;35317;51.978;6.296;2023-05-23T19:29:24;6.70;;;0.90;;
49440;SDS011;35317;51.978;6.296;2023-05-23T19:34:25;7.20;;;1.30;;
49440;SDS011;35317;51.978;6.296;2023-05-23T19:39:26;3.47;;;0.70;;
49440;SDS011;35317;51.978;6.296;2023-05-23T19:44:27;2.03;;;0.75;;
49440;SDS011;35317;51.978;6.296;2023-05-23T19:49:28;4.50;;;0.90;;
49440;SDS011;35317;51.978;6.296;2023-05-23T19:54:28;3.38;;;0.80;;
49440;SDS011;35317;51.978;6.296;2023-05-23T19:59:29;2.17;;;0.73;;
49440;SDS011;35317;51.978;6.296;2023-05-23T20:04:30;2.50;;;0.80;;
49440;SDS011;35317;51.978;6.296;2023-05-23T20:09:31;4.00;;;0.80;;
49440;SDS011;35317;51.978;6.296;2023-05-23T20:14:32;5.15;;;0.90;;
49440;SDS011;35317;51.978;6.296;2023-05-23T20:19:33;5.07;;;0.95;;
49440;SDS011;35317;51.978;6.296;2023-05-23T20:24:34;3.97;;;1.00;;
49440;SDS011;35317;51.978;6.296;2023-05-23T20:29:34;4.78;;;0.90;;
49440;SDS011;35317;51.978;6.296;2023-05-23T20:34:36;4.50;;;1.00;;
49440;SDS011;35317;51.978;6.296;2023-05-23T20:39:37;4.25;;;0.73;;
49440;SDS011;35317;51.978;6.296;2023-05-23T20:44:40;3.33;;;0.80;;
49440;SDS011;35317;51.978;6.296;2023-05-23T20:49:41;5.63;;;0.65;;
49440;SDS011;35317;51.978;6.296;2023-05-23T20:54:43;4.35;;;0.68;;
49440;SDS011;35317;51.978;6.296;2023-05-23T20:59:47;3.45;;;0.73;;
49440;SDS011;35317;51.978;6.296;2023-05-23T21:04:48;3.80;;;0.88;;
49440;SDS011;35317;51.978;6.296;2023-05-23T21:09:49;3.95;;;0.90;;
49440;SDS011;35317;51.978;6.296;2023-05-23T21:14:50;3.40;;;0.73;;
49440;SDS011;35317;51.978;6.296;2023-05-23T21:19:51;3.40;;;1.08;;
49440;SDS011;35317;51.978;6.296;2023-05-23T21:24:52;6.53;;;1.00;;
49440;SDS011;35317;51.978;6.296;2023-05-23T21:29:52;6.03;;;0.90;;
49440;SDS011;35317;51.978;6.296;2023-05-23T21:34:54;6.00;;;0.75;;
49440;SDS011;35317;51.978;6.296;2023-05-23T21:39:55;3.25;;;1.20;;
49440;SDS011;35317;51.978;6.296;2023-05-23T21:44:56;8.65;;;1.52;;
49440;SDS011;35317;51.978;6.296;2023-05-23T21:49:56;3.58;;;0.70;;
49440;SDS011;35317;51.978;6.296;2023-05-23T21:54:57;3.78;;;1.15;;
49440;SDS011;35317;51.978;6.296;2023-05-23T21:59:58;4.40;;;1.00;;
49440;SDS011;35317;51.978;6.296;2023-05-23T22:04:59;2.70;;;0.77;;
49440;SDS011;35317;51.978;6.296;2023-05-23T22:09:59;4.93;;;0.90;;
49440;SDS011;35317;51.978;6.296;2023-05-23T22:15:00;6.05;;;1.23;;
49440;SDS011;35317;51.978;6.296;2023-05-23T22:20:01;3.78;;;1.08;;
49440;SDS011;35317;51.978;6.296;2023-05-23T22:25:04;2.65;;;0.98;;
49440;SDS011;35317;51.978;6.296;2023-05-23T22:30:06;6.60;;;1.33;;
49440;SDS011;35317;51.978;6.296;2023-05-23T22:35:07;4.88;;;1.27;;
49440;SDS011;35317;51.978;6.296;2023-05-23T22:40:08;2.83;;;1.08;;
49440;SDS011;35317;51.978;6.296;2023-05-23T22:45:09;6.15;;;1.10;;
49440;SDS011;35317;51.978;6.296;2023-05-23T22:50:10;5.75;;;1.10;;
49440;SDS011;35317;51.978;6.296;2023-05-23T22:55:11;8.88;;;1.30;;
49440;SDS011;35317;51.978;6.296;2023-05-23T23:00:12;3.92;;;1.30;;
49440;SDS011;35317;51.978;6.296;2023-05-23T23:05:18;3.03;;;0.90;;
49440;SDS011;35317;51.978;6.296;2023-05-23T23:10:20;5.32;;;1.30;;
49440;SDS011;35317;51.978;6.296;2023-05-23T23:15:21;4.60;;;1.10;;
49440;SDS011;35317;51.978;6.296;2023-05-23T23:20:22;5.55;;;1.27;;
49440;SDS011;35317;51.978;6.296;2023-05-23T23:25:22;4.63;;;1.58;;
49440;SDS011;35317;51.978;6.296;2023-05-23T23:30:23;5.22;;;1.25;;
49440;SDS011;35317;51.978;6.296;2023-05-23T23:35:24;5.35;;;1.00;;
49440;SDS011;35317;51.978;6.296;2023-05-23T23:40:25;4.22;;;1.35;;
49440;SDS011;35317;51.978;6.296;2023-05-23T23:45:25;9.35;;;1.38;;
49440;SDS011;35317;51.978;6.296;2023-05-23T23:50:26;3.75;;;1.30;;
49440;SDS011;35317;51.978;6.296;2023-05-23T23:55:27;5.63;;;1.10;;
